createdAt,value
2017-08-30T00:02:18.108Z,20.79
2017-08-30T00:04:43.896Z,20.83
2017-08-30T00:07:09.650Z,20.87
2017-08-30T00:09:35.497Z,20.93
2017-08-30T00:12:01.284Z,20.99
2017-08-30T00:14:27.040Z,20.90
2017-08-30T00:16:52.811Z,20.89
2017-08-30T00:19:18.591Z,20.83
2017-08-30T00:21:44.407Z,20.88
2017-08-30T00:24:10.168Z,20.81
2017-08-30T00:26:35.955Z,20.82
2017-08-30T00:29:01.811Z,20.84
2017-08-30T00:31:27.590Z,20.72
2017-08-30T00:33:53.451Z,20.75
2017-08-30T00:36:19.243Z,20.81
2017-08-30T00:38:45.023Z,20.59
2017-08-30T00:41:10.800Z,20.72
2017-08-30T00:43:36.604Z,20.76
2017-08-30T00:46:02.363Z,20.58
2017-08-30T00:48:28.216Z,20.41
2017-08-30T00:50:54.027Z,20.62
2017-08-30T00:53:19.788Z,20.74
2017-08-30T00:55:45.575Z,20.78
2017-08-30T00:58:11.372Z,20.86
2017-08-30T01:00:37.151Z,20.72
2017-08-30T01:03:02.969Z,20.73
2017-08-30T01:05:28.746Z,20.73
2017-08-30T01:07:54.547Z,20.80
2017-08-30T01:10:20.456Z,20.83
2017-08-30T01:12:46.208Z,20.52
2017-08-30T01:15:11.952Z,20.40
2017-08-30T01:17:37.741Z,20.57
2017-08-30T01:20:03.493Z,20.67
2017-08-30T01:22:29.293Z,20.35
2017-08-30T01:24:55.039Z,20.30
2017-08-30T01:27:20.850Z,20.38
2017-08-30T01:29:46.762Z,20.45
2017-08-30T01:32:12.580Z,20.46
2017-08-30T01:34:38.349Z,20.31
2017-08-30T01:37:04.111Z,20.32
2017-08-30T01:39:29.912Z,20.02
2017-08-30T01:41:55.735Z,19.96
2017-08-30T01:44:21.484Z,20.04
2017-08-30T01:46:47.263Z,20.05
2017-08-30T01:49:13.035Z,20.36
2017-08-30T01:51:38.798Z,20.36
2017-08-30T01:54:04.575Z,20.44
2017-08-30T01:56:30.380Z,20.28
2017-08-30T01:58:56.174Z,20.29
2017-08-30T02:01:21.931Z,20.54
2017-08-30T02:03:47.671Z,20.67
2017-08-30T02:06:13.519Z,20.64
2017-08-30T02:08:39.277Z,20.56
2017-08-30T02:11:05.050Z,20.71
2017-08-30T02:13:30.876Z,20.50
2017-08-30T02:15:56.644Z,20.71
2017-08-30T02:18:22.414Z,20.67
2017-08-30T02:20:48.191Z,20.69
2017-08-30T02:23:13.974Z,20.68
2017-08-30T02:25:39.755Z,20.61
2017-08-30T02:28:05.587Z,20.61
2017-08-30T02:30:31.353Z,20.54
2017-08-30T02:32:57.140Z,20.57
2017-08-30T02:35:22.932Z,20.17
2017-08-30T02:37:48.722Z,20.20
2017-08-30T02:40:14.486Z,20.31
2017-08-30T02:42:40.288Z,20.32
2017-08-30T02:45:06.058Z,20.35
2017-08-30T02:47:31.833Z,20.52
2017-08-30T02:49:57.615Z,20.60
2017-08-30T02:52:23.393Z,20.53
2017-08-30T02:54:50.119Z,20.67
2017-08-30T02:57:15.952Z,20.58
2017-08-30T02:59:41.724Z,20.62
2017-08-30T03:02:07.475Z,20.51
2017-08-30T03:04:33.269Z,20.34
2017-08-30T03:06:59.036Z,20.35
2017-08-30T03:09:24.798Z,20.15
2017-08-30T03:11:50.609Z,20.10
2017-08-30T03:14:16.365Z,20.04
2017-08-30T03:16:42.196Z,19.90
2017-08-30T03:19:07.971Z,19.73
2017-08-30T03:21:33.725Z,19.54
2017-08-30T03:23:59.503Z,19.46
2017-08-30T03:26:25.291Z,19.39
2017-08-30T03:28:51.065Z,19.37
2017-08-30T03:31:16.832Z,19.35
2017-08-30T03:33:42.629Z,19.40
2017-08-30T03:36:08.495Z,19.65
2017-08-30T03:38:34.246Z,19.66
2017-08-30T03:41:00.906Z,19.55
2017-08-30T03:43:26.734Z,19.73
2017-08-30T03:45:52.491Z,19.80
2017-08-30T03:48:18.291Z,19.73
2017-08-30T03:50:44.068Z,19.59
2017-08-30T03:53:09.844Z,19.30
2017-08-30T03:55:35.735Z,19.29
2017-08-30T03:58:01.519Z,19.07
2017-08-30T04:00:27.284Z,19.16
2017-08-30T04:02:53.043Z,19.54
2017-08-30T04:05:18.831Z,19.65
2017-08-30T04:07:44.611Z,19.30
2017-08-30T04:10:10.379Z,19.64
2017-08-30T04:12:36.151Z,19.81
2017-08-30T04:15:02.084Z,19.83
2017-08-30T04:17:27.856Z,19.86
2017-08-30T04:19:53.665Z,19.79
2017-08-30T04:22:19.507Z,19.81
2017-08-30T04:24:45.312Z,19.86
2017-08-30T04:27:11.119Z,19.85
2017-08-30T04:29:36.919Z,19.94
2017-08-30T04:32:02.695Z,19.97
2017-08-30T04:34:28.467Z,19.98
2017-08-30T04:36:54.256Z,19.82
2017-08-30T04:39:20.015Z,19.76
2017-08-30T04:41:45.878Z,19.92
2017-08-30T04:44:11.677Z,20.10
2017-08-30T04:46:38.570Z,20.08
2017-08-30T04:49:04.333Z,20.34
2017-08-30T04:51:30.127Z,20.30
2017-08-30T04:53:55.932Z,20.42
2017-08-30T04:56:21.772Z,20.45
2017-08-30T04:58:47.563Z,20.60
2017-08-30T05:01:13.358Z,20.59
2017-08-30T05:03:39.146Z,20.75
2017-08-30T05:06:04.955Z,20.87
2017-08-30T05:08:30.699Z,20.99
2017-08-30T05:10:56.453Z,21.11
2017-08-30T05:13:22.223Z,21.15
2017-08-30T05:15:47.983Z,21.05
2017-08-30T05:18:13.775Z,21.06
2017-08-30T05:20:39.544Z,21.12
2017-08-30T05:23:05.311Z,21.14
2017-08-30T05:25:31.113Z,21.09
2017-08-30T05:27:56.864Z,21.22
2017-08-30T05:30:23.468Z,21.47
2017-08-30T05:32:49.264Z,21.50
2017-08-30T05:35:15.041Z,21.28
2017-08-30T05:37:40.811Z,21.44
2017-08-30T05:40:06.653Z,21.43
2017-08-30T05:42:32.411Z,21.51
2017-08-30T05:44:58.192Z,21.57
2017-08-30T05:47:23.959Z,21.62
2017-08-30T05:49:49.815Z,21.53
2017-08-30T05:52:15.563Z,21.74
2017-08-30T05:54:41.339Z,21.74
2017-08-30T05:57:07.134Z,21.69
2017-08-30T05:59:32.882Z,21.91
2017-08-30T06:01:58.672Z,21.91
2017-08-30T06:04:24.445Z,22.02
2017-08-30T06:06:50.196Z,22.15
2017-08-30T06:09:16.000Z,22.39
2017-08-30T06:11:41.755Z,22.37
2017-08-30T06:14:07.495Z,22.40
2017-08-30T06:16:33.294Z,22.59
2017-08-30T06:18:59.034Z,22.32
2017-08-30T06:21:24.788Z,22.51
2017-08-30T06:23:50.563Z,22.80
2017-08-30T06:26:16.323Z,22.80
2017-08-30T06:28:42.095Z,22.90
2017-08-30T06:31:07.864Z,22.94
2017-08-30T06:33:33.648Z,23.06
2017-08-30T06:35:59.421Z,23.05
2017-08-30T06:38:25.479Z,23.19
2017-08-30T06:40:51.241Z,23.10
2017-08-30T06:43:17.010Z,23.30
2017-08-30T06:45:42.796Z,23.55
2017-08-30T06:48:08.567Z,23.54
2017-08-30T06:50:34.384Z,23.86
2017-08-30T06:53:00.135Z,24.02
2017-08-30T06:55:25.882Z,24.37
2017-08-30T06:57:51.684Z,24.57
2017-08-30T07:00:17.454Z,24.70
2017-08-30T07:02:43.242Z,25.27
2017-08-30T07:05:09.003Z,25.39
2017-08-30T07:07:34.777Z,25.87
2017-08-30T07:10:00.551Z,26.29
2017-08-30T07:12:26.331Z,27.07
2017-08-30T07:14:52.175Z,27.21
2017-08-30T07:17:17.926Z,27.08
2017-08-30T07:19:43.691Z,27.60
2017-08-30T07:22:09.443Z,27.68
2017-08-30T07:24:35.271Z,27.69
2017-08-30T07:27:01.040Z,27.69
2017-08-30T07:29:26.788Z,27.75
2017-08-30T07:31:52.564Z,27.39
2017-08-30T07:34:18.319Z,27.41
2017-08-30T07:36:44.091Z,27.15
2017-08-30T07:39:09.915Z,26.91
2017-08-30T07:41:35.665Z,26.58
2017-08-30T07:44:01.448Z,27.06
2017-08-30T07:46:27.212Z,27.12
2017-08-30T07:48:52.966Z,27.56
2017-08-30T07:51:18.779Z,27.62
2017-08-30T07:53:44.535Z,27.65
2017-08-30T07:56:10.288Z,27.57
2017-08-30T07:58:36.139Z,26.77
2017-08-30T08:01:01.973Z,27.91
2017-08-30T08:03:27.715Z,28.18
2017-08-30T08:05:53.465Z,28.33
2017-08-30T08:08:19.244Z,28.69
2017-08-30T08:10:45.004Z,29.15
2017-08-30T08:13:10.793Z,29.16
2017-08-30T08:15:36.567Z,29.49
2017-08-30T08:18:02.352Z,29.45
2017-08-30T08:20:28.140Z,29.49
2017-08-30T08:22:53.931Z,29.00
2017-08-30T08:25:19.702Z,28.83
2017-08-30T08:27:45.523Z,28.96
2017-08-30T08:30:11.276Z,28.93
2017-08-30T08:32:37.035Z,28.73
2017-08-30T08:35:02.811Z,29.09
2017-08-30T08:37:28.583Z,29.33
2017-08-30T08:39:54.367Z,29.53
2017-08-30T08:42:20.155Z,29.16
2017-08-30T08:44:45.919Z,29.58
2017-08-30T08:47:11.703Z,29.58
2017-08-30T08:49:37.469Z,29.69
2017-08-30T08:52:03.267Z,30.10
2017-08-30T08:54:30.037Z,29.65
2017-08-30T08:56:55.800Z,30.43
2017-08-30T08:59:21.559Z,30.46
2017-08-30T09:01:47.339Z,30.07
2017-08-30T09:04:13.124Z,30.21
2017-08-30T09:06:38.891Z,30.54
2017-08-30T09:09:04.757Z,30.49
2017-08-30T09:11:30.524Z,30.96
2017-08-30T09:13:56.291Z,31.00
2017-08-30T09:16:22.083Z,30.83
2017-08-30T09:18:47.908Z,30.54
2017-08-30T09:21:13.680Z,30.34
2017-08-30T09:23:39.436Z,30.82
2017-08-30T09:26:05.207Z,30.56
2017-08-30T09:28:30.955Z,30.50
2017-08-30T09:30:56.735Z,30.31
2017-08-30T09:33:22.475Z,31.13
2017-08-30T09:35:48.232Z,31.07
2017-08-30T09:38:14.024Z,30.73
2017-08-30T09:40:39.967Z,31.05
2017-08-30T09:43:05.725Z,30.65
2017-08-30T09:45:31.510Z,30.43
2017-08-30T09:47:57.280Z,30.53
2017-08-30T09:50:23.047Z,30.55
2017-08-30T09:52:48.828Z,30.63
2017-08-30T09:55:14.611Z,31.02
2017-08-30T09:57:40.356Z,31.07
2017-08-30T10:00:06.118Z,31.08
2017-08-30T10:02:31.891Z,31.27
2017-08-30T10:04:57.676Z,30.91
2017-08-30T10:07:23.476Z,31.19
2017-08-30T10:09:49.278Z,31.36
2017-08-30T10:12:15.035Z,31.50
2017-08-30T10:14:40.891Z,31.33
2017-08-30T10:17:06.676Z,31.52
2017-08-30T10:19:32.443Z,31.57
2017-08-30T10:21:58.224Z,31.98
2017-08-30T10:24:23.987Z,31.83
2017-08-30T10:26:49.733Z,31.99
2017-08-30T10:29:15.500Z,31.82
2017-08-30T10:31:41.281Z,31.55
2017-08-30T10:34:07.019Z,31.89
2017-08-30T10:36:32.787Z,31.64
2017-08-30T10:38:58.532Z,31.50
2017-08-30T10:41:24.336Z,31.11
2017-08-30T10:43:50.099Z,31.15
2017-08-30T10:46:15.849Z,31.20
2017-08-30T10:48:41.624Z,31.17
2017-08-30T10:51:07.385Z,31.41
2017-08-30T10:53:33.270Z,31.49
2017-08-30T10:55:59.023Z,31.83
2017-08-30T10:58:24.789Z,32.31
2017-08-30T11:00:50.584Z,32.08
2017-08-30T11:03:16.356Z,32.77
2017-08-30T11:05:42.157Z,32.56
2017-08-30T11:08:07.957Z,33.03
2017-08-30T11:10:33.737Z,33.81
2017-08-30T11:12:59.532Z,33.23
2017-08-30T11:15:25.330Z,32.70
2017-08-30T11:17:51.092Z,33.10
2017-08-30T11:20:16.880Z,33.72
2017-08-30T11:22:42.628Z,34.12
2017-08-30T11:25:08.436Z,33.83
2017-08-30T11:27:34.219Z,33.05
2017-08-30T11:30:00.002Z,32.47
2017-08-30T11:32:25.843Z,32.02
2017-08-30T11:34:51.599Z,31.95
2017-08-30T11:37:17.362Z,31.92
2017-08-30T11:39:43.135Z,31.88
2017-08-30T11:42:08.904Z,31.92
2017-08-30T11:44:34.786Z,31.69
2017-08-30T11:47:00.548Z,31.88
2017-08-30T11:49:26.299Z,31.81
2017-08-30T11:51:52.083Z,32.17
2017-08-30T11:54:17.886Z,32.18
2017-08-30T11:56:43.670Z,32.02
2017-08-30T11:59:09.479Z,32.46
2017-08-30T12:01:35.248Z,32.60
2017-08-30T12:04:01.034Z,33.67
2017-08-30T12:06:26.820Z,33.53
2017-08-30T12:08:52.580Z,33.57
2017-08-30T12:11:18.355Z,33.79
2017-08-30T12:13:44.115Z,33.48
2017-08-30T12:16:09.902Z,33.90
2017-08-30T12:18:35.677Z,34.20
2017-08-30T12:21:01.449Z,33.71
2017-08-30T12:23:27.238Z,34.93
2017-08-30T12:25:53.000Z,35.94
2017-08-30T12:28:18.741Z,35.64
2017-08-30T12:30:46.559Z,35.66
2017-08-30T12:33:12.360Z,35.86
2017-08-30T12:35:38.116Z,36.04
2017-08-30T12:38:10.048Z,35.19
2017-08-30T12:40:35.808Z,34.93
2017-08-30T12:43:01.582Z,33.91
2017-08-30T12:45:27.360Z,33.71
2017-08-30T12:47:53.172Z,34.02
2017-08-30T12:50:18.950Z,34.25
2017-08-30T12:52:44.750Z,34.58
2017-08-30T12:55:10.502Z,34.07
2017-08-30T12:57:36.296Z,34.12
2017-08-30T13:00:02.178Z,33.46
2017-08-30T13:02:27.941Z,33.66
2017-08-30T13:04:53.696Z,33.65
2017-08-30T13:07:19.470Z,33.52
2017-08-30T13:09:45.245Z,33.50
2017-08-30T13:12:11.047Z,34.04
2017-08-30T13:14:36.807Z,33.89
2017-08-30T13:17:02.563Z,33.99
2017-08-30T13:19:28.415Z,34.01
2017-08-30T13:21:54.195Z,33.82
2017-08-30T13:24:20.043Z,34.24
2017-08-30T13:26:45.869Z,34.88
2017-08-30T13:29:11.740Z,34.27
2017-08-30T13:31:37.524Z,33.87
2017-08-30T13:34:03.323Z,33.62
2017-08-30T13:36:29.071Z,33.62
2017-08-30T13:38:54.865Z,34.33
2017-08-30T13:41:21.426Z,34.34
2017-08-30T13:43:47.317Z,34.15
2017-08-30T13:46:13.162Z,34.00
2017-08-30T13:48:38.959Z,34.16
2017-08-30T13:51:05.914Z,33.45
2017-08-30T13:53:31.727Z,33.63
2017-08-30T13:55:57.524Z,33.78
2017-08-30T13:58:23.271Z,33.66
2017-08-30T14:00:49.115Z,33.93
2017-08-30T14:03:15.547Z,34.56
2017-08-30T14:05:41.330Z,33.78
2017-08-30T14:08:07.120Z,34.26
2017-08-30T14:10:32.883Z,34.31
2017-08-30T14:12:58.710Z,34.54
2017-08-30T14:15:24.468Z,33.96
2017-08-30T14:17:50.251Z,33.77
2017-08-30T14:20:16.115Z,33.98
2017-08-30T14:22:41.882Z,34.54
2017-08-30T14:25:07.709Z,33.79
2017-08-30T14:27:34.092Z,33.82
2017-08-30T14:30:00.636Z,34.18
2017-08-30T14:32:27.171Z,34.11
2017-08-30T14:34:53.712Z,33.94
2017-08-30T14:37:20.054Z,33.99
2017-08-30T14:39:46.388Z,34.59
2017-08-30T14:42:12.200Z,34.46
2017-08-30T14:44:37.962Z,33.78
2017-08-30T14:47:03.803Z,33.50
2017-08-30T14:49:29.564Z,33.56
2017-08-30T14:51:55.351Z,33.43
2017-08-30T14:54:21.260Z,32.88
2017-08-30T14:56:47.789Z,32.62
2017-08-30T14:59:14.324Z,32.28
2017-08-30T15:01:40.660Z,32.25
2017-08-30T15:04:06.996Z,32.21
2017-08-30T15:06:33.435Z,32.10
2017-08-30T15:08:59.768Z,31.92
2017-08-30T15:11:26.116Z,31.62
2017-08-30T15:13:52.451Z,31.69
2017-08-30T15:16:18.898Z,31.66
2017-08-30T15:18:45.232Z,31.67
2017-08-30T15:21:11.369Z,31.74
2017-08-30T15:23:37.791Z,31.78
2017-08-30T15:26:04.236Z,31.71
2017-08-30T15:28:30.568Z,31.61
2017-08-30T15:30:57.014Z,31.57
2017-08-30T15:33:23.348Z,31.65
2017-08-30T15:35:49.698Z,31.99
2017-08-30T15:38:16.120Z,31.90
2017-08-30T15:40:42.560Z,31.85
2017-08-30T15:43:09.007Z,31.92
2017-08-30T15:45:35.442Z,31.56
2017-08-30T15:48:02.031Z,31.38
2017-08-30T15:50:28.520Z,31.24
2017-08-30T15:52:55.063Z,31.20
2017-08-30T15:55:21.702Z,30.99
2017-08-30T15:57:48.047Z,30.95
2017-08-30T16:00:14.380Z,30.85
2017-08-30T16:02:40.715Z,30.75
2017-08-30T16:05:07.155Z,30.56
2017-08-30T16:07:36.611Z,30.48
2017-08-30T16:10:02.530Z,30.33
2017-08-30T16:12:28.292Z,30.21
2017-08-30T16:14:54.162Z,30.26
2017-08-30T16:17:19.959Z,30.39
2017-08-30T16:19:45.757Z,30.39
2017-08-30T16:22:11.523Z,30.31
2017-08-30T16:24:37.364Z,30.09
2017-08-30T16:27:03.103Z,29.97
2017-08-30T16:29:28.852Z,29.83
2017-08-30T16:31:54.656Z,29.65
2017-08-30T16:34:20.474Z,29.56
2017-08-30T16:36:46.215Z,29.45
2017-08-30T16:39:12.008Z,29.46
2017-08-30T16:41:37.814Z,29.30
2017-08-30T16:44:03.571Z,29.26
2017-08-30T16:46:29.323Z,29.29
2017-08-30T16:48:55.152Z,29.11
2017-08-30T16:51:20.913Z,29.00
2017-08-30T16:53:46.707Z,28.87
2017-08-30T16:56:12.581Z,28.91
2017-08-30T16:58:38.376Z,28.85
2017-08-30T17:01:04.197Z,28.78
2017-08-30T17:03:30.019Z,28.72
2017-08-30T17:05:55.811Z,28.54
2017-08-30T17:08:21.651Z,28.54
2017-08-30T17:10:47.443Z,28.38
2017-08-30T17:13:13.299Z,28.37
2017-08-30T17:15:39.075Z,28.27
2017-08-30T17:18:04.906Z,28.27
2017-08-30T17:20:30.658Z,28.29
2017-08-30T17:22:56.464Z,28.04
2017-08-30T17:25:22.281Z,27.96
2017-08-30T17:27:48.118Z,27.74
2017-08-30T17:30:17.012Z,27.68
2017-08-30T17:32:42.849Z,27.57
2017-08-30T17:35:08.724Z,27.43
2017-08-30T17:37:34.524Z,27.32
2017-08-30T17:40:00.300Z,27.32
2017-08-30T17:42:26.064Z,27.43
2017-08-30T17:44:51.871Z,27.28
2017-08-30T17:47:17.635Z,27.18
2017-08-30T17:49:43.499Z,27.30
2017-08-30T17:52:09.255Z,27.24
2017-08-30T17:54:35.003Z,27.18
2017-08-30T17:57:00.796Z,26.98
2017-08-30T17:59:26.940Z,26.93
2017-08-30T18:01:52.804Z,26.63
2017-08-30T18:04:18.566Z,26.64
2017-08-30T18:06:44.323Z,26.47
2017-08-30T18:09:10.135Z,26.34
2017-08-30T18:11:35.907Z,26.32
2017-08-30T18:14:01.683Z,26.25
2017-08-30T18:16:27.580Z,26.23
2017-08-30T18:18:53.359Z,26.40
2017-08-30T18:21:19.162Z,26.29
2017-08-30T18:23:45.054Z,26.18
2017-08-30T18:26:10.828Z,26.32
2017-08-30T18:28:36.701Z,26.26
2017-08-30T18:31:02.452Z,26.09
2017-08-30T18:33:28.234Z,25.96
2017-08-30T18:35:54.016Z,25.91
2017-08-30T18:38:19.828Z,25.72
2017-08-30T18:40:45.639Z,25.75
2017-08-30T18:43:11.398Z,25.83
2017-08-30T18:45:37.156Z,25.75
2017-08-30T18:48:02.968Z,25.89
2017-08-30T18:50:28.783Z,26.03
2017-08-30T18:52:54.657Z,25.96
2017-08-30T18:55:20.493Z,25.94
2017-08-30T18:57:46.265Z,25.70
2017-08-30T19:00:16.032Z,25.90
2017-08-30T19:02:41.799Z,25.94
2017-08-30T19:05:07.619Z,25.87
2017-08-30T19:07:33.398Z,25.68
2017-08-30T19:09:59.312Z,25.64
2017-08-30T19:12:25.081Z,25.40
2017-08-30T19:14:50.961Z,25.38
2017-08-30T19:17:16.714Z,25.48
2017-08-30T19:19:42.506Z,25.37
2017-08-30T19:22:08.334Z,25.38
2017-08-30T19:24:34.212Z,25.17
2017-08-30T19:27:19.081Z,25.42
2017-08-30T19:29:49.053Z,25.19
2017-08-30T19:32:14.809Z,25.37
2017-08-30T19:34:40.678Z,25.36
2017-08-30T19:37:06.437Z,25.39
2017-08-30T19:39:32.305Z,25.11
2017-08-30T19:41:58.062Z,25.05
2017-08-30T19:44:23.864Z,25.11
2017-08-30T19:46:53.822Z,24.93
2017-08-30T19:49:19.590Z,24.93
2017-08-30T19:51:49.260Z,24.71
2017-08-30T19:54:15.044Z,24.60
2017-08-30T19:56:40.832Z,24.58
2017-08-30T19:59:06.611Z,24.41
2017-08-30T20:01:32.408Z,24.55
2017-08-30T20:03:58.162Z,24.52
2017-08-30T20:06:23.939Z,24.38
2017-08-30T20:08:49.703Z,24.29
2017-08-30T20:11:15.680Z,24.26
2017-08-30T20:13:41.462Z,24.26
2017-08-30T20:16:07.240Z,24.39
2017-08-30T20:18:33.017Z,24.37
2017-08-30T20:20:58.789Z,24.28
2017-08-30T20:23:24.596Z,24.29
2017-08-30T20:25:50.361Z,24.35
2017-08-30T20:28:16.125Z,24.12
2017-08-30T20:30:41.876Z,24.01
2017-08-30T20:33:07.981Z,23.82
2017-08-30T20:35:33.743Z,23.83
2017-08-30T20:37:59.533Z,23.79
2017-08-30T20:40:25.415Z,23.24
2017-08-30T20:42:51.207Z,22.66
2017-08-30T20:45:17.044Z,22.16
2017-08-30T20:47:42.841Z,21.53
2017-08-30T20:50:08.593Z,21.15
2017-08-30T20:52:34.355Z,21.06
2017-08-30T20:55:01.076Z,20.97
2017-08-30T20:57:27.003Z,20.90
2017-08-30T20:59:52.760Z,20.85
2017-08-30T21:02:18.534Z,20.91
2017-08-30T21:04:44.346Z,20.88
2017-08-30T21:07:10.119Z,20.92
2017-08-30T21:09:35.935Z,20.94
2017-08-30T21:12:01.739Z,21.01
2017-08-30T21:14:28.095Z,20.92
2017-08-30T21:16:53.856Z,20.93
2017-08-30T21:19:19.683Z,20.93
2017-08-30T21:21:45.476Z,21.06
2017-08-30T21:24:11.286Z,20.97
2017-08-30T21:26:37.080Z,20.78
2017-08-30T21:29:02.889Z,20.81
2017-08-30T21:31:28.818Z,20.97
2017-08-30T21:33:54.556Z,21.05
2017-08-30T21:36:20.328Z,21.02
2017-08-30T21:38:46.137Z,20.86
2017-08-30T21:41:11.892Z,20.89
2017-08-30T21:43:37.648Z,20.86
2017-08-30T21:46:03.452Z,20.69
2017-08-30T21:48:29.191Z,20.93
2017-08-30T21:50:54.948Z,21.00
2017-08-30T21:53:20.812Z,20.89
2017-08-30T21:55:46.598Z,20.90
2017-08-30T21:58:12.356Z,20.94
2017-08-30T22:00:38.200Z,20.71
2017-08-30T22:03:03.949Z,20.67
2017-08-30T22:05:29.768Z,20.75
2017-08-30T22:07:55.526Z,20.77
2017-08-30T22:10:21.284Z,20.86
2017-08-30T22:12:47.044Z,20.63
2017-08-30T22:15:13.416Z,20.87
2017-08-30T22:17:39.205Z,20.59
2017-08-30T22:20:05.004Z,20.56
2017-08-30T22:22:30.756Z,20.57
2017-08-30T22:24:56.526Z,20.57
2017-08-30T22:27:22.318Z,20.56
2017-08-30T22:29:48.148Z,20.59
2017-08-30T22:32:13.890Z,20.63
2017-08-30T22:34:39.676Z,20.65
2017-08-30T22:37:05.422Z,20.31
2017-08-30T22:39:31.280Z,20.26
2017-08-30T22:41:57.043Z,20.23
2017-08-30T22:44:22.943Z,20.19
2017-08-30T22:46:48.703Z,20.20
2017-08-30T22:49:14.472Z,20.16
2017-08-30T22:51:40.288Z,20.18
2017-08-30T22:54:06.038Z,20.11
2017-08-30T22:56:31.835Z,20.15
2017-08-30T22:58:57.600Z,20.06
2017-08-30T23:01:23.360Z,20.14
2017-08-30T23:03:49.141Z,20.23
2017-08-30T23:06:14.896Z,20.30
2017-08-30T23:08:40.708Z,20.32
2017-08-30T23:11:06.471Z,20.44
2017-08-30T23:13:32.229Z,20.46
2017-08-30T23:15:58.030Z,20.56
2017-08-30T23:18:23.794Z,20.60
2017-08-30T23:20:49.571Z,20.52
2017-08-30T23:23:15.368Z,20.61
2017-08-30T23:25:41.139Z,20.63
2017-08-30T23:28:06.928Z,20.51
2017-08-30T23:30:32.692Z,20.61
2017-08-30T23:32:58.450Z,20.59
2017-08-30T23:35:24.243Z,20.48
2017-08-30T23:37:50.005Z,20.58
2017-08-30T23:40:15.783Z,20.51
2017-08-30T23:42:41.557Z,20.64
2017-08-30T23:45:07.400Z,20.68
2017-08-30T23:47:33.344Z,20.59
2017-08-30T23:49:59.101Z,20.48
2017-08-30T23:52:24.871Z,20.57
2017-08-30T23:54:50.681Z,20.58
2017-08-30T23:57:16.472Z,20.71
2017-08-30T23:59:43.014Z,20.63
